Portada
METAR-TAF:

METAR-TAF

Aeroports :

Huntsville, Alabama, Estats Units d'Amèrica

latitud: 34-51-41N, longitud: 086-33-26W, altitud: 230 m

Observació

L'informe es va fer fa 17 minuts, a les 14:35 UTC
Vent 9 kt del Sud/Sud-Est
Temperatura 27°C
Humitat 62%
Pressió 1018 hPa
Visibilitat: 16.1 km
Cel clar

METAR: KMDQ 251435Z AUTO 15009KT 10SM CLR 27/19 A3006 RMK A02 T02670195

Hora: 09:52 (14:52 UTC)


TAF: manca

Observacions i pronòstics meteorològics de més de 4000 aeroports (METAR i TAF).

Les estacions disponibles són els punts grocs i vermells al mapa.

Posi el ratolí al punt desitjat per veure el nom de l'estació.

Feu clic per veure les observacions i els pronòstics meteorològics.

Per canviar el mapa: feu clic els botons verds amb una creu de color negre per apropar; al botó verd amb un guió per allunyar la imatge; o en les fletxes verdes per a mapes adjacents.


METAR-TAF: